Tropical Cyclones
[Index]
Main Index Home Page Stock Weather Photos Extreme Storms Discussion Storm News and Storm Chasing Reports Tropical Cyclones / Hurricanes / Typhoons Weather Data and Links Wild Fires / Bushfires Weather Observation Techniques Weather Picture Catalogue Tornado Pictures and Reports Stock Video Footage and DVDs for sale
Season 2007-2008 Tropical Cyclone MELANIE Track Map
Season 2007-2008 Summaries: [BoM-AU] [JTWC-AU] [JTWC-SIO] [JTWC-SPAC] [JTWC-SH]
<<- Previous TC | JTWC 2007-2008 Season | Next TC ->>

click for intensity scale information  Lat/long Grid: Show Hide

 Date Labels: Show Hide

Joint Typhoon Warning Centre Cyclone Data

Name: MELANIE

26 Dec 2007 00:00 UTC to 01 Jan 2008 18:00 UTC

    date/time    lat    long     hPa   cat  kts
2007-12-26 00    9.5   115.7    1010         15          
2007-12-26 06    9.7   115.8    1007         20          
2007-12-26 12   10.1   116.1    1004         25          
2007-12-26 18   10.5   116.5    1004         25          
2007-12-27 00   11.1   117.1    1004         25          
2007-12-27 06   12.0   117.7    1003         25          
2007-12-27 12   13.2   118.0    1002         25          
2007-12-27 18   13.8   117.8    1000         30          
2007-12-28 00   14.4   117.6    1000         30          
2007-12-28 06   15.0   118.0     996         35          
2007-12-28 12   15.5   118.3     993    1    40          
2007-12-28 18   16.2   117.9     993    1    45          
2007-12-29 00   16.8   117.4     978    2    60          
2007-12-29 00   16.8   117.4     978    2    60          
2007-12-29 06   17.3   116.8     978    2    60          
2007-12-29 06   17.3   116.8     978    2    60          
2007-12-29 12   17.9   116.1     978    2    60          
2007-12-29 12   17.9   116.1     978    2    60          
2007-12-29 18   18.2   115.1     978    2    60          
2007-12-29 18   18.2   115.1     978    2    60          
2007-12-30 00   18.5   114.1     978    2    60          
2007-12-30 00   18.5   114.1     978    2    60          
2007-12-30 06   18.7   113.4     978    2    60          
2007-12-30 06   18.7   113.4     978    2    60          
2007-12-30 12   18.8   112.8     978    2    60          
2007-12-30 12   18.8   112.8     978    2    60          
2007-12-30 18   18.8   112.4     982    2    55          
2007-12-30 18   18.8   112.4     982    2    55          
2007-12-31 00   18.8   112.0     985    1    50          
2007-12-31 06   18.9   111.6     989    1    45          
2007-12-31 12   19.0   111.2     993    1    40          
2007-12-31 18   19.4   111.0     996         35          
2008-01-01 00   19.9   110.9     996         35          
2008-01-01 06   20.8   110.6    1000         30          
2008-01-01 12   21.3   110.0    1004         25          
2008-01-01 18   21.9   109.3    1004         25          
Winds are 1-min average.

Tropical cyclone tracks developed by Michael Bath using data from the Joint Typhoon Warning Centre Best Tracks and Google Maps.


[Australian Severe Weather index] [Copyright Notice] [Email Contacts] [Search This Site] [Privacy Policy]
Document: tropical_cyclone_melanie.htm Updated: 28 June 2017